createdAt,value
2023-03-17T00:01:54.697Z,101026.75
2023-03-17T00:04:24.684Z,101022.45
2023-03-17T00:06:54.282Z,101024.74
2023-03-17T00:09:22.773Z,101024.34
2023-03-17T00:11:50.733Z,101022.19
2023-03-17T00:14:19.657Z,101023.71
2023-03-17T00:16:52.764Z,101016.20
2023-03-17T00:19:35.198Z,101013.47
2023-03-17T00:22:06.065Z,101017.06
2023-03-17T00:24:34.089Z,101014.45
2023-03-17T00:27:02.314Z,101009.67
2023-03-17T00:29:29.743Z,101008.33
2023-03-17T00:31:57.679Z,101017.73
2023-03-17T00:34:25.148Z,101014.84
2023-03-17T00:36:53.422Z,101012.89
2023-03-17T00:39:20.921Z,101019.24
2023-03-17T00:41:49.072Z,101014.85
2023-03-17T00:44:16.495Z,101010.41
2023-03-17T00:46:44.702Z,101012.49
2023-03-17T00:51:47.232Z,101013.95
2023-03-17T00:54:17.261Z,101006.56
2023-03-17T00:56:46.087Z,101006.03
2023-03-17T00:59:33.279Z,101006.91
2023-03-17T01:02:00.889Z,101008.36
2023-03-17T01:04:28.723Z,101009.62
2023-03-17T01:06:58.432Z,101011.02
2023-03-17T01:09:27.539Z,101010.59
2023-03-17T01:11:55.878Z,101007.05
2023-03-17T01:14:24.590Z,101007.65
2023-03-17T01:16:56.023Z,101008.58
2023-03-17T01:19:23.688Z,101008.13
2023-03-17T01:21:52.196Z,101006.96
2023-03-17T01:24:19.933Z,101005.18
2023-03-17T01:26:47.339Z,101007.46
2023-03-17T01:29:14.958Z,101002.88
2023-03-17T01:31:42.449Z,100999.84
2023-03-17T01:34:11.154Z,100998.36
2023-03-17T01:36:38.653Z,100998.70
2023-03-17T01:39:07.400Z,100996.45
2023-03-17T01:41:36.486Z,100991.65
2023-03-17T01:44:04.687Z,100984.95
2023-03-17T01:46:35.406Z,100986.31
2023-03-17T01:49:19.422Z,100985.63
2023-03-17T01:52:09.129Z,100986.98
2023-03-17T01:54:55.653Z,100992.79
2023-03-17T01:57:37.115Z,100993.96
2023-03-17T02:00:13.800Z,101001.77
2023-03-17T02:02:44.786Z,101000.17
2023-03-17T02:05:17.963Z,101002.42
2023-03-17T02:07:45.762Z,101002.99
2023-03-17T02:10:17.493Z,101004.73
2023-03-17T02:12:48.432Z,100999.29
2023-03-17T02:15:15.952Z,101002.38
2023-03-17T02:17:43.558Z,101007.04
2023-03-17T02:20:17.128Z,101004.34
2023-03-17T02:22:48.803Z,101004.45
2023-03-17T02:25:17.393Z,101000.78
2023-03-17T02:27:48.158Z,101000.71
2023-03-17T02:30:19.455Z,101001.84
2023-03-17T02:32:47.873Z,101006.48
2023-03-17T02:35:16.571Z,101006.07
2023-03-17T02:37:45.986Z,101004.74
2023-03-17T02:40:14.864Z,101010.61
2023-03-17T02:42:42.459Z,101015.45
2023-03-17T02:45:11.582Z,101014.30
2023-03-17T02:47:41.370Z,101018.98
2023-03-17T02:50:17.709Z,101016.64
2023-03-17T02:52:45.337Z,101013.95
2023-03-17T02:55:13.245Z,101010.40
2023-03-17T02:57:41.204Z,101015.21
2023-03-17T03:00:11.911Z,101014.93
2023-03-17T03:02:40.333Z,101010.91
2023-03-17T03:05:08.828Z,101007.71
2023-03-17T03:07:36.514Z,101008.28
2023-03-17T03:10:05.681Z,101007.98
2023-03-17T03:12:33.198Z,100999.65
2023-03-17T03:15:00.736Z,100998.83
2023-03-17T03:17:28.456Z,100996.82
2023-03-17T03:19:56.018Z,100992.26
2023-03-17T03:22:23.528Z,100987.39
2023-03-17T03:24:51.153Z,100977.02
2023-03-17T03:27:19.003Z,100971.61
2023-03-17T03:29:47.270Z,100973.23
2023-03-17T03:32:14.692Z,100976.39
2023-03-17T03:34:42.676Z,100976.67
2023-03-17T03:37:10.497Z,100982.94
2023-03-17T03:39:39.111Z,100987.02
2023-03-17T03:42:06.990Z,100986.44
2023-03-17T03:44:34.538Z,100985.69
2023-03-17T03:47:02.723Z,100985.97
2023-03-17T03:49:30.199Z,100986.80
2023-03-17T03:51:57.684Z,100986.21
2023-03-17T03:54:25.298Z,100975.04
2023-03-17T03:56:52.702Z,100966.98
2023-03-17T03:59:21.081Z,100963.85
2023-03-17T04:01:50.071Z,100962.39
2023-03-17T04:04:17.714Z,100962.83
2023-03-17T04:06:45.386Z,100955.23
2023-03-17T04:09:13.553Z,100952.40
2023-03-17T04:11:43.421Z,100955.03
2023-03-17T04:14:11.001Z,100961.11
2023-03-17T04:16:39.049Z,100968.52
2023-03-17T04:19:07.709Z,100976.27
2023-03-17T04:21:36.779Z,100980.42
2023-03-17T04:24:10.035Z,100984.46
2023-03-17T04:26:37.616Z,100995.51
2023-03-17T04:29:16.150Z,100998.84
2023-03-17T04:31:44.425Z,100999.14
2023-03-17T04:34:22.074Z,101004.72
2023-03-17T04:36:54.100Z,101004.98
2023-03-17T04:39:21.810Z,101002.54
2023-03-17T04:41:49.261Z,101001.96
2023-03-17T04:44:16.744Z,101006.67
2023-03-17T04:46:45.588Z,101002.52
2023-03-17T04:49:15.979Z,100996.59
2023-03-17T04:51:44.566Z,100996.50
2023-03-17T04:54:12.318Z,100996.58
2023-03-17T04:56:40.501Z,100994.77
2023-03-17T04:59:08.130Z,100995.02
2023-03-17T05:01:39.074Z,100996.09
2023-03-17T05:04:07.995Z,100993.04
2023-03-17T05:06:37.345Z,100988.66
2023-03-17T05:09:05.451Z,100985.52
2023-03-17T05:11:32.943Z,100985.63
2023-03-17T05:14:00.392Z,100988.27
2023-03-17T05:16:27.924Z,100984.95
2023-03-17T05:18:55.690Z,100977.46
2023-03-17T05:21:23.281Z,100980.79
2023-03-17T05:23:51.005Z,100990.61
2023-03-17T05:26:19.892Z,100997.49
2023-03-17T05:28:48.435Z,100996.34
2023-03-17T05:31:16.191Z,100992.13
2023-03-17T05:33:43.670Z,100997.30
2023-03-17T05:36:11.164Z,100996.70
2023-03-17T05:38:38.671Z,101002.42
2023-03-17T05:41:06.343Z,101009.91
2023-03-17T05:43:33.878Z,101015.83
2023-03-17T05:46:01.369Z,101020.55
2023-03-17T05:48:29.198Z,101018.75
2023-03-17T05:50:57.933Z,101019.73
2023-03-17T05:53:26.486Z,101020.42
2023-03-17T05:55:54.460Z,101015.24
2023-03-17T05:58:23.395Z,101011.06
2023-03-17T06:00:51.117Z,101014.25
2023-03-17T06:03:18.697Z,101015.85
2023-03-17T06:05:46.363Z,101014.90
2023-03-17T06:08:15.891Z,101012.60
2023-03-17T06:10:43.485Z,101005.86
2023-03-17T06:13:11.777Z,101005.44
2023-03-17T06:15:39.444Z,100999.36
2023-03-17T06:18:07.762Z,100995.30
2023-03-17T06:20:40.700Z,100989.73
2023-03-17T06:23:09.918Z,100995.30
2023-03-17T06:25:37.475Z,101005.95
2023-03-17T06:28:06.108Z,101012.17
2023-03-17T06:30:40.481Z,101006.83
2023-03-17T06:33:08.867Z,100999.95
2023-03-17T06:35:38.975Z,100995.27
2023-03-17T06:38:07.133Z,100994.91
2023-03-17T06:40:49.197Z,101001.83
2023-03-17T06:43:27.946Z,101006.73
2023-03-17T06:45:55.632Z,101008.99
2023-03-17T06:48:23.712Z,101013.70
2023-03-17T06:50:53.524Z,101015.02
2023-03-17T06:53:21.731Z,101018.52
2023-03-17T06:55:54.722Z,101016.41
2023-03-17T06:58:22.849Z,101011.05
2023-03-17T07:00:55.037Z,101010.35
2023-03-17T07:03:26.506Z,101013.77
2023-03-17T07:05:54.796Z,101011.88
2023-03-17T07:08:25.878Z,101010.30
2023-03-17T07:10:57.887Z,101012.14
2023-03-17T07:13:25.830Z,101015.55
2023-03-17T07:15:55.441Z,101022.86
2023-03-17T07:18:23.561Z,101012.57
2023-03-17T07:20:51.015Z,101006.41
2023-03-17T07:23:22.985Z,101003.17
2023-03-17T07:25:53.033Z,100997.84
2023-03-17T07:28:21.728Z,100994.92
2023-03-17T07:30:50.900Z,100988.90
2023-03-17T07:33:21.222Z,100985.42
2023-03-17T07:35:49.865Z,100983.83
2023-03-17T07:38:19.243Z,100986.66
2023-03-17T07:40:48.905Z,100990.73
2023-03-17T07:43:17.713Z,100996.92
2023-03-17T07:45:46.916Z,100991.42
2023-03-17T07:48:14.790Z,100994.49
2023-03-17T07:50:43.030Z,100999.10
2023-03-17T07:53:11.288Z,101000.81
2023-03-17T07:55:38.894Z,101005.81
2023-03-17T07:58:13.115Z,101006.31
2023-03-17T08:00:44.534Z,101000.13
2023-03-17T08:03:12.474Z,100998.58
2023-03-17T08:05:41.043Z,100996.23
2023-03-17T08:08:10.506Z,101000.11
2023-03-17T08:10:38.051Z,101002.45
2023-03-17T08:13:05.588Z,101008.70
2023-03-17T08:15:33.180Z,101009.55
2023-03-17T08:18:01.114Z,101003.53
2023-03-17T08:20:30.179Z,101007.02
2023-03-17T08:22:58.113Z,101010.13
2023-03-17T08:25:25.868Z,101009.58
2023-03-17T08:27:53.986Z,101004.23
2023-03-17T08:30:21.704Z,101007.64
2023-03-17T08:32:49.281Z,101006.36
2023-03-17T08:35:18.532Z,100999.23
2023-03-17T08:37:47.434Z,100993.65
2023-03-17T08:40:17.722Z,100988.88
2023-03-17T08:42:46.662Z,100987.51
2023-03-17T08:45:18.330Z,100986.50
2023-03-17T08:47:47.722Z,100983.96
2023-03-17T08:50:19.222Z,100982.82
2023-03-17T08:52:49.582Z,100979.75
2023-03-17T08:55:24.802Z,100980.63
2023-03-17T08:57:58.656Z,100972.11
2023-03-17T09:00:26.634Z,100978.02
2023-03-17T09:02:55.442Z,100984.77
2023-03-17T09:05:27.316Z,100987.59
2023-03-17T09:08:02.921Z,100986.61
2023-03-17T09:10:31.470Z,100986.29
2023-03-17T09:13:03.829Z,100982.31
2023-03-17T09:15:34.317Z,100981.46
2023-03-17T09:18:03.147Z,100975.73
2023-03-17T09:20:35.138Z,100975.36
2023-03-17T09:23:07.908Z,100972.43
2023-03-17T09:25:41.660Z,100965.68
2023-03-17T09:28:12.836Z,100959.62
2023-03-17T09:30:42.772Z,100960.14
2023-03-17T09:33:12.922Z,100956.16
2023-03-17T09:35:41.476Z,100961.19
2023-03-17T09:38:10.374Z,100962.06
2023-03-17T09:41:10.953Z,100958.77
2023-03-17T09:44:05.561Z,100960.15
2023-03-17T09:46:54.795Z,100955.66
2023-03-17T09:49:28.186Z,100959.81
2023-03-17T09:51:56.067Z,100959.99
2023-03-17T09:54:34.812Z,100957.73
2023-03-17T09:57:20.048Z,100950.80
2023-03-17T10:00:08.433Z,100953.76
2023-03-17T10:02:45.322Z,100949.77
2023-03-17T10:05:14.909Z,100941.98
2023-03-17T10:08:01.643Z,100938.85
2023-03-17T10:10:48.320Z,100931.92
2023-03-17T10:13:27.459Z,100923.09
2023-03-17T10:16:18.687Z,100919.62
2023-03-17T10:19:18.435Z,100920.65
2023-03-17T10:21:58.915Z,100921.01
2023-03-17T10:24:29.798Z,100914.95
2023-03-17T10:27:00.820Z,100907.84
2023-03-17T10:29:29.228Z,100908.17
2023-03-17T10:31:58.676Z,100902.94
2023-03-17T10:34:37.361Z,100896.53
2023-03-17T10:37:09.352Z,100887.31
2023-03-17T10:39:56.185Z,100877.55
2023-03-17T10:42:33.470Z,100869.64
2023-03-17T10:45:33.200Z,100864.33
2023-03-17T10:48:04.325Z,100857.36
2023-03-17T10:50:39.714Z,100850.42
2023-03-17T10:53:18.317Z,100850.79
2023-03-17T10:55:54.380Z,100847.32
2023-03-17T10:58:45.352Z,100838.58
2023-03-17T11:01:33.369Z,100838.99
2023-03-17T11:04:02.908Z,100841.98
2023-03-17T11:06:41.949Z,100845.95
2023-03-17T11:09:16.721Z,100841.84
2023-03-17T11:11:48.995Z,100843.66
2023-03-17T11:14:27.259Z,100837.39
2023-03-17T11:16:56.662Z,100843.36
2023-03-17T11:19:41.988Z,100844.52
2023-03-17T11:22:15.984Z,100842.87
2023-03-17T11:24:49.557Z,100840.91
2023-03-17T11:27:30.437Z,100842.32
2023-03-17T11:30:34.705Z,100834.27
2023-03-17T11:33:33.827Z,100826.77
2023-03-17T11:36:27.060Z,100822.08
2023-03-17T11:39:05.672Z,100816.14
2023-03-17T11:41:44.787Z,100813.04
2023-03-17T11:44:36.327Z,100808.51
2023-03-17T11:47:36.593Z,100799.70
2023-03-17T11:50:20.062Z,100800.57
2023-03-17T11:52:57.990Z,100800.96
2023-03-17T11:55:41.099Z,100799.01
2023-03-17T11:58:17.981Z,100790.40
2023-03-17T12:00:52.460Z,100790.83
2023-03-17T12:03:33.174Z,100787.89
2023-03-17T12:06:08.472Z,100785.55
2023-03-17T12:08:45.823Z,100771.29
2023-03-17T12:11:19.377Z,100766.00
2023-03-17T12:13:54.049Z,100764.48
2023-03-17T12:16:43.402Z,100758.11
2023-03-17T12:19:19.389Z,100757.95
2023-03-17T12:21:53.035Z,100754.04
2023-03-17T12:24:30.518Z,100747.43
2023-03-17T12:27:05.932Z,100748.97
2023-03-17T12:29:49.698Z,100750.08
2023-03-17T12:32:38.585Z,100741.17
2023-03-17T12:35:29.257Z,100729.26
2023-03-17T12:38:03.882Z,100735.01
2023-03-17T12:40:43.435Z,100724.36
2023-03-17T12:43:38.470Z,100716.14
2023-03-17T12:46:24.674Z,100694.80
2023-03-17T12:49:11.161Z,100684.71
2023-03-17T12:51:59.113Z,100683.92
2023-03-17T12:54:30.961Z,100678.13
2023-03-17T12:57:06.569Z,100686.27
2023-03-17T12:59:36.788Z,100684.02
2023-03-17T13:02:21.397Z,100662.84
2023-03-17T13:04:58.182Z,100663.39
2023-03-17T13:07:37.840Z,100660.90
2023-03-17T13:10:41.961Z,100659.67
2023-03-17T13:13:18.477Z,100665.13
2023-03-17T13:15:57.322Z,100661.02
2023-03-17T13:18:49.312Z,100658.49
2023-03-17T13:21:20.632Z,100656.15
2023-03-17T13:24:15.633Z,100663.15
2023-03-17T13:27:02.066Z,100657.74
2023-03-17T13:29:40.857Z,100651.73
2023-03-17T13:32:27.720Z,100659.40
2023-03-17T13:35:00.127Z,100652.42
2023-03-17T13:37:35.700Z,100650.21
2023-03-17T13:40:22.702Z,100641.23
2023-03-17T13:43:02.067Z,100641.82
2023-03-17T13:45:41.410Z,100630.81
2023-03-17T13:48:27.473Z,100628.80
2023-03-17T13:51:12.672Z,100624.40
2023-03-17T13:54:14.903Z,100627.77
2023-03-17T13:56:44.317Z,100633.05
2023-03-17T13:59:20.511Z,100641.73
2023-03-17T14:02:02.177Z,100653.11
2023-03-17T14:04:44.666Z,100657.14
2023-03-17T14:07:19.394Z,100659.09
2023-03-17T14:09:46.837Z,100650.06
2023-03-17T14:12:46.449Z,100643.19
2023-03-17T14:15:36.074Z,100644.90
2023-03-17T14:18:15.365Z,100646.52
2023-03-17T14:21:01.345Z,100639.27
2023-03-17T14:23:29.949Z,100643.85
2023-03-17T14:25:58.788Z,100636.30
2023-03-17T14:28:29.754Z,100635.34
2023-03-17T14:31:04.308Z,100634.21
2023-03-17T14:33:37.790Z,100626.50
2023-03-17T14:36:09.354Z,100622.21
2023-03-17T14:38:39.150Z,100619.38
2023-03-17T14:41:22.641Z,100619.55
2023-03-17T14:43:52.383Z,100619.61
2023-03-17T14:46:24.646Z,100622.02
2023-03-17T14:49:04.556Z,100629.42
2023-03-17T14:51:37.794Z,100626.52
2023-03-17T14:54:13.951Z,100620.19
2023-03-17T14:56:48.230Z,100623.71
2023-03-17T14:59:29.770Z,100621.89
2023-03-17T15:02:05.297Z,100617.39
2023-03-17T15:04:34.202Z,100622.23
2023-03-17T15:07:09.022Z,100625.54
2023-03-17T15:09:40.169Z,100614.56
2023-03-17T15:12:26.186Z,100615.59
2023-03-17T15:15:02.916Z,100620.88
2023-03-17T15:17:36.717Z,100616.36
2023-03-17T15:20:12.689Z,100608.73
2023-03-17T15:22:48.342Z,100600.48
2023-03-17T15:25:20.730Z,100611.33
2023-03-17T15:27:48.301Z,100611.67
2023-03-17T15:30:17.320Z,100619.77
2023-03-17T15:33:01.321Z,100619.09
2023-03-17T15:35:31.484Z,100616.58
2023-03-17T15:37:59.039Z,100613.45
2023-03-17T15:40:26.794Z,100609.89
2023-03-17T15:42:54.345Z,100610.17
2023-03-17T15:45:21.964Z,100606.95
2023-03-17T15:47:49.441Z,100606.06
2023-03-17T15:50:33.529Z,100606.98
2023-03-17T15:53:01.435Z,100616.28
2023-03-17T15:55:30.707Z,100616.21
2023-03-17T15:57:59.614Z,100611.80
2023-03-17T16:00:30.041Z,100610.44
2023-03-17T16:03:04.161Z,100616.62
2023-03-17T16:05:34.479Z,100618.94
2023-03-17T16:08:02.324Z,100621.59
2023-03-17T16:10:32.926Z,100619.05
2023-03-17T16:13:00.870Z,100616.73
2023-03-17T16:15:32.265Z,100616.21
2023-03-17T16:18:04.195Z,100618.52
2023-03-17T16:20:39.696Z,100624.29
2023-03-17T16:23:27.166Z,100621.73
2023-03-17T16:25:59.322Z,100624.75
2023-03-17T16:28:33.566Z,100622.70
2023-03-17T16:31:04.466Z,100623.36
2023-03-17T16:33:40.929Z,100621.55
2023-03-17T16:36:15.962Z,100624.27
2023-03-17T16:38:46.408Z,100623.49
2023-03-17T16:41:27.881Z,100623.88
2023-03-17T16:44:01.384Z,100627.21
2023-03-17T16:46:35.031Z,100627.44
2023-03-17T16:49:04.337Z,100629.16
2023-03-17T16:51:31.824Z,100632.27
2023-03-17T16:53:59.293Z,100630.85
2023-03-17T16:56:27.562Z,100628.83
2023-03-17T16:58:55.336Z,100630.83
2023-03-17T17:01:28.292Z,100630.55
2023-03-17T17:03:56.392Z,100626.80
2023-03-17T17:06:24.937Z,100621.50
2023-03-17T17:08:53.020Z,100620.68
2023-03-17T17:11:21.317Z,100627.14
2023-03-17T17:13:49.226Z,100632.54
2023-03-17T17:16:29.255Z,100629.80
2023-03-17T17:18:57.903Z,100630.35
2023-03-17T17:21:26.496Z,100626.57
2023-03-17T17:23:55.850Z,100627.98
2023-03-17T17:26:23.405Z,100627.81
2023-03-17T17:28:50.968Z,100620.92
2023-03-17T17:31:18.792Z,100619.20
2023-03-17T17:33:46.468Z,100619.73
2023-03-17T17:36:16.681Z,100623.19
2023-03-17T17:38:44.928Z,100626.13
2023-03-17T17:41:14.094Z,100626.14
2023-03-17T17:43:42.026Z,100630.13
2023-03-17T17:46:18.925Z,100633.75
2023-03-17T17:48:48.838Z,100637.55
2023-03-17T17:51:17.092Z,100637.36
2023-03-17T17:53:45.128Z,100636.16
2023-03-17T17:56:18.262Z,100632.71
2023-03-17T17:58:46.812Z,100629.94
2023-03-17T18:01:19.873Z,100621.13
2023-03-17T18:03:49.348Z,100614.05
2023-03-17T18:06:17.924Z,100613.69
2023-03-17T18:08:45.969Z,100612.15
2023-03-17T18:11:14.667Z,100612.84
2023-03-17T18:13:42.240Z,100608.86
2023-03-17T18:16:18.363Z,100610.41
2023-03-17T18:18:47.334Z,100611.45
2023-03-17T18:21:15.400Z,100602.81
2023-03-17T18:23:47.245Z,100608.16
2023-03-17T18:26:18.058Z,100606.95
2023-03-17T18:28:48.556Z,100610.73
2023-03-17T18:31:29.411Z,100611.78
2023-03-17T18:34:03.707Z,100610.73
2023-03-17T18:36:34.614Z,100620.40
2023-03-17T18:39:02.459Z,100626.44
2023-03-17T18:41:32.898Z,100620.03
2023-03-17T18:44:00.621Z,100622.79
2023-03-17T18:46:28.392Z,100620.71
2023-03-17T18:48:56.007Z,100614.66
2023-03-17T18:51:23.579Z,100614.98
2023-03-17T18:53:51.149Z,100615.31
2023-03-17T18:56:18.691Z,100610.11
2023-03-17T18:58:46.260Z,100614.42
2023-03-17T19:01:15.801Z,100610.63
2023-03-17T19:03:43.254Z,100614.42
2023-03-17T19:06:14.035Z,100614.23
2023-03-17T19:08:43.217Z,100615.96
2023-03-17T19:11:13.844Z,100611.28
2023-03-17T19:13:42.134Z,100613.52
2023-03-17T19:16:10.559Z,100615.59
2023-03-17T19:18:41.922Z,100612.14
2023-03-17T19:21:11.260Z,100605.91
2023-03-17T19:23:41.296Z,100607.64
2023-03-17T19:26:08.872Z,100609.35
2023-03-17T19:28:36.406Z,100607.61
2023-03-17T19:31:04.061Z,100606.58
2023-03-17T19:33:32.665Z,100604.14
2023-03-17T19:36:07.446Z,100604.14
2023-03-17T19:38:36.461Z,100605.52
2023-03-17T19:41:04.952Z,100606.71
2023-03-17T19:43:40.262Z,100609.11
2023-03-17T19:46:10.911Z,100607.38
2023-03-17T19:48:38.942Z,100605.84
2023-03-17T19:51:06.703Z,100608.42
2023-03-17T19:53:40.554Z,100613.77
2023-03-17T19:56:11.568Z,100605.32
2023-03-17T19:58:39.258Z,100604.11
2023-03-17T20:01:07.395Z,100601.87
2023-03-17T20:03:37.796Z,100598.59
2023-03-17T20:06:06.373Z,100595.13
2023-03-17T20:08:35.338Z,100601.68
2023-03-17T20:11:04.864Z,100605.98
2023-03-17T20:13:34.352Z,100610.12
2023-03-17T20:16:03.671Z,100609.08
2023-03-17T20:18:31.603Z,100611.66
2023-03-17T20:21:00.472Z,100606.31
2023-03-17T20:23:27.911Z,100606.65
2023-03-17T20:25:55.332Z,100601.12
2023-03-17T20:28:22.943Z,100600.75
2023-03-17T20:30:53.944Z,100593.67
2023-03-17T20:33:21.654Z,100600.22
2023-03-17T20:35:49.146Z,100601.59
2023-03-17T20:38:17.324Z,100603.29
2023-03-17T20:40:44.889Z,100604.30
2023-03-17T20:43:12.825Z,100603.42
2023-03-17T20:45:40.494Z,100602.90
2023-03-17T20:48:10.529Z,100603.58
2023-03-17T20:50:38.887Z,100608.91
2023-03-17T20:53:07.485Z,100611.64
2023-03-17T20:55:36.279Z,100613.89
2023-03-17T20:58:03.871Z,100612.66
2023-03-17T21:00:33.339Z,100611.96
2023-03-17T21:03:01.945Z,100609.56
2023-03-17T21:05:29.479Z,100613.17
2023-03-17T21:07:57.619Z,100608.15
2023-03-17T21:10:25.308Z,100605.91
2023-03-17T21:12:52.880Z,100599.88
2023-03-17T21:15:24.104Z,100601.08
2023-03-17T21:17:52.199Z,100595.73
2023-03-17T21:20:21.093Z,100594.34
2023-03-17T21:22:49.764Z,100590.20
2023-03-17T21:25:19.201Z,100592.10
2023-03-17T21:27:46.665Z,100588.48
2023-03-17T21:30:15.772Z,100587.78
2023-03-17T21:32:43.303Z,100586.58
2023-03-17T21:35:10.846Z,100583.48
2023-03-17T21:37:38.385Z,100583.13
2023-03-17T21:40:06.886Z,100572.77
2023-03-17T21:42:34.670Z,100576.03
2023-03-17T21:45:02.463Z,100576.72
2023-03-17T21:47:30.191Z,100573.28
2023-03-17T21:49:57.987Z,100571.04
2023-03-17T21:52:26.013Z,100570.35
2023-03-17T21:54:53.533Z,100570.85
2023-03-17T21:57:22.776Z,100571.02
2023-03-17T21:59:50.234Z,100573.59
2023-03-17T22:02:17.786Z,100574.10
2023-03-17T22:04:46.893Z,100571.67
2023-03-17T22:07:16.743Z,100569.27
2023-03-17T22:09:45.226Z,100564.95
2023-03-17T22:12:15.548Z,100565.09
2023-03-17T22:14:43.139Z,100562.34
2023-03-17T22:17:10.730Z,100564.05
2023-03-17T22:19:40.117Z,100559.74
2023-03-17T22:22:08.317Z,100558.70
2023-03-17T22:24:37.694Z,100555.60
2023-03-17T22:27:05.819Z,100554.36
2023-03-17T22:29:33.306Z,100552.81
2023-03-17T22:32:02.218Z,100550.55
2023-03-17T22:34:29.862Z,100551.08
2023-03-17T22:36:57.373Z,100550.90
2023-03-17T22:39:25.433Z,100549.85
2023-03-17T22:41:52.971Z,100550.35
2023-03-17T22:44:20.627Z,100552.45
2023-03-17T22:46:48.244Z,100550.02
2023-03-17T22:49:16.267Z,100554.98
2023-03-17T22:51:43.840Z,100555.49
2023-03-17T22:54:12.140Z,100551.19
2023-03-17T22:56:39.663Z,100551.17
2023-03-17T22:59:07.243Z,100551.00
2023-03-17T23:01:38.652Z,100549.59
2023-03-17T23:04:08.903Z,100546.31
2023-03-17T23:06:36.550Z,100542.00
2023-03-17T23:09:05.464Z,100551.13
2023-03-17T23:11:32.997Z,100548.88
2023-03-17T23:14:00.581Z,100551.10
2023-03-17T23:16:28.226Z,100551.44
2023-03-17T23:18:56.101Z,100552.08
2023-03-17T23:21:30.835Z,100549.15
2023-03-17T23:23:58.720Z,100548.60
2023-03-17T23:26:28.176Z,100544.99
2023-03-17T23:28:55.813Z,100547.58
2023-03-17T23:31:23.904Z,100542.75
2023-03-17T23:33:51.520Z,100543.25
2023-03-17T23:36:19.317Z,100539.45
2023-03-17T23:38:48.591Z,100534.63
2023-03-17T23:41:17.377Z,100529.98
2023-03-17T23:43:46.913Z,100525.48
2023-03-17T23:46:15.197Z,100524.61
2023-03-17T23:48:43.204Z,100526.30
2023-03-17T23:51:12.624Z,100525.63
2023-03-17T23:53:41.802Z,100526.80
2023-03-17T23:56:11.280Z,100525.23
2023-03-17T23:58:43.780Z,100522.64
